Time;durP1;ratioP1;P1;durP2;ratioP2;P2;SDS_P1;SDS_P2;PMS_P1;PMS_P2;Temp;Humidity;BMP_temperature;BMP_pressure;BME280_temperature;BME280_humidity;BME280_pressure;Samples;Min_cycle;Max_cycle;Signal;HPM_P1;HPM_P2
2023/05/18 02:40:44;;;;;;;5.60;2.17;;;7.20;99.90;;;;;;5105545;23;20046;-85
2023/05/18 02:46:41;;;;;;;9.90;2.15;;;7.20;99.90;;;;;;5180792;23;20054;-87
2023/05/18 03:17:07;;;;;;;12.13;2.23;;;7.30;99.90;;;;;;4828049;29;39664;-84
2023/05/18 03:25:04;;;;;;;11.67;2.27;;;7.20;99.90;;;;;;5827892;23;21431;-83
2023/05/18 03:37:10;;;;;;;8.18;2.17;;;7.20;99.90;;;;;;5019950;23;20042;-83
2023/05/18 03:39:53;;;;;;;8.37;2.60;;;7.10;99.90;;;;;;4853965;29;50192;-84
2023/05/18 03:45:18;;;;;;;9.77;2.30;;;7.10;99.90;;;;;;5209305;23;20029;-84
2023/05/18 03:47:52;;;;;;;8.23;2.00;;;7.10;99.90;;;;;;4870728;29;39446;-84
2023/05/18 03:50:47;;;;;;;10.38;2.67;;;7.10;99.90;;;;;;4867338;29;39709;-85
2023/05/18 03:53:36;;;;;;;12.40;2.63;;;7.10;99.90;;;;;;4863880;29;37744;-85
2023/05/18 04:03:58;;;;;;;7.90;2.13;;;7.10;99.90;;;;;;5601099;23;20045;-83
2023/05/18 04:06:51;;;;;;;16.40;2.57;;;7.10;99.90;;;;;;4867414;29;39395;-86
2023/05/18 04:09:36;;;;;;;9.67;2.00;;;7.00;99.90;;;;;;4829903;29;38278;-87
2023/05/18 04:12:30;;;;;;;9.50;2.30;;;7.10;99.90;;;;;;4823605;29;39873;-86
2023/05/18 04:15:32;;;;;;;10.23;2.63;;;7.10;99.90;;;;;;4847816;29;50457;-85
2023/05/18 05:06:25;;;;;;;7.93;2.00;;;7.80;99.90;;;;;;5491822;23;20032;31
2023/05/18 05:38:49;;;;;;;14.75;1.75;;;8.90;99.90;;;;;;5333126;23;20057;-80
2023/05/18 05:41:16;;;;;;;7.53;2.10;;;9.10;99.90;;;;;;4852665;29;38061;-80
2023/05/18 06:16:02;;;;;;;14.57;2.40;;;10.40;99.90;;;;;;5310884;23;20053;-85
2023/05/18 06:22:02;;;;;;;6.57;1.70;;;10.20;99.90;;;;;;5303174;23;19920;-83
2023/05/18 06:42:43;;;;;;;10.07;2.30;;;11.20;99.90;;;;;;5871763;24;20021;-83
2023/05/18 08:29:10;;;;;;;9.10;2.28;;;14.00;99.90;;;;;;5584164;23;20942;-84
2023/05/18 09:07:37;;;;;;;7.45;2.28;;;12.60;99.90;;;;;;4938048;23;19912;-83
2023/05/18 09:15:36;;;;;;;8.48;2.30;;;13.60;99.90;;;;;;5062822;23;20057;-83
2023/05/18 09:18:03;;;;;;;6.63;1.90;;;13.90;99.90;;;;;;4876868;29;37670;-84
2023/05/18 09:20:30;;;;;;;10.80;2.15;;;13.70;99.90;;;;;;4878206;29;38385;-83
2023/05/18 09:22:59;;;;;;;11.43;2.47;;;14.00;99.90;;;;;;4889773;29;37354;-84
2023/05/18 09:25:30;;;;;;;7.78;2.08;;;14.50;99.90;;;;;;4880095;29;38673;-84
2023/05/18 09:28:03;;;;;;;11.82;2.47;;;15.00;99.90;;;;;;4863087;29;38440;-84
2023/05/18 09:30:30;;;;;;;7.18;2.42;;;15.00;99.90;;;;;;4840242;29;48733;-85
2023/05/18 09:32:56;;;;;;;12.32;2.30;;;15.10;99.90;;;;;;4853081;29;35250;-86
2023/05/18 09:35:24;;;;;;;8.40;2.35;;;14.80;99.90;;;;;;4850788;29;38746;-87
2023/05/18 09:37:52;;;;;;;8.60;2.13;;;15.00;99.90;;;;;;4860094;29;38550;-87
2023/05/18 09:40:19;;;;;;;9.93;2.53;;;14.80;99.90;;;;;;4852317;29;37375;-88
2023/05/18 09:42:48;;;;;;;8.55;1.90;;;14.70;99.90;;;;;;4863154;29;36954;-86
2023/05/18 09:45:25;;;;;;;9.25;2.17;;;14.60;99.90;;;;;;4850922;29;37989;-88
2023/05/18 09:47:52;;;;;;;7.43;2.10;;;14.40;99.90;;;;;;4861198;29;38709;-84
2023/05/18 09:50:20;;;;;;;9.10;2.70;;;14.00;99.90;;;;;;4882346;29;37654;-82
2023/05/18 09:52:59;;;;;;;10.68;2.17;;;13.90;99.90;;;;;;4874285;29;35898;-82
2023/05/18 09:55:35;;;;;;;8.20;2.40;;;13.80;99.90;;;;;;4873446;29;37248;-82
2023/05/18 09:58:03;;;;;;;9.13;2.40;;;14.20;99.90;;;;;;4884836;29;37557;-83
2023/05/18 10:00:50;;;;;;;6.35;2.28;;;14.10;99.90;;;;;;4867314;29;48000;-84
2023/05/18 10:03:25;;;;;;;8.07;2.20;;;14.30;99.90;;;;;;4873051;29;38446;-83
2023/05/18 10:05:52;;;;;;;6.18;1.77;;;14.10;99.90;;;;;;4869829;29;39302;-82
2023/05/18 10:08:20;;;;;;;7.68;2.20;;;14.50;99.90;;;;;;4883758;29;37462;-86
2023/05/18 10:10:48;;;;;;;8.55;2.38;;;15.00;99.90;;;;;;4860653;29;37443;-86
2023/05/18 10:13:19;;;;;;;10.10;2.35;;;15.50;99.90;;;;;;4858621;29;35832;-86
2023/05/18 10:15:53;;;;;;;7.33;1.97;;;15.40;99.90;;;;;;4863108;29;40062;-85
2023/05/18 10:18:29;;;;;;;7.63;2.50;;;15.60;99.90;;;;;;4874017;29;40903;-87
2023/05/18 10:21:01;;;;;;;9.32;2.70;;;15.30;99.90;;;;;;4866193;29;35300;-89
2023/05/18 10:23:32;;;;;;;9.90;2.30;;;15.40;99.90;;;;;;4866858;29;48290;-86
2023/05/18 10:25:59;;;;;;;9.23;2.30;;;14.70;99.90;;;;;;4861659;29;38149;-84
2023/05/18 10:28:27;;;;;;;8.10;2.58;;;15.00;99.90;;;;;;4856069;29;37389;-85
2023/05/18 10:30:58;;;;;;;8.18;2.20;;;14.60;99.90;;;;;;4873090;29;39127;-85
2023/05/18 10:33:29;;;;;;;7.95;2.42;;;14.70;99.90;;;;;;4858219;29;36148;-83
2023/05/18 10:35:57;;;;;;;8.20;2.55;;;14.60;99.90;;;;;;4863873;29;37518;-86
2023/05/18 10:38:27;;;;;;;9.50;2.58;;;14.70;99.90;;;;;;4867959;29;38701;-87
2023/05/18 10:40:56;;;;;;;6.65;2.22;;;14.80;99.90;;;;;;4859486;29;38869;-86
2023/05/18 10:43:26;;;;;;;14.57;3.53;;;14.70;99.90;;;;;;4863159;29;38195;-85
2023/05/18 10:46:09;;;;;;;8.63;2.30;;;14.70;99.90;;;;;;4863208;29;39683;-86
2023/05/18 10:48:39;;;;;;;9.15;2.13;;;15.00;99.90;;;;;;4836348;29;48494;-85
2023/05/18 10:51:07;;;;;;;7.75;2.33;;;14.90;99.90;;;;;;4865525;29;37821;-88
2023/05/18 10:53:33;;;;;;;12.27;3.05;;;14.70;99.90;;;;;;4870178;29;34808;-85
2023/05/18 10:56:00;;;;;;;7.10;2.40;;;14.80;99.90;;;;;;4872853;29;37899;-86
2023/05/18 10:58:28;;;;;;;10.20;2.40;;;14.90;99.90;;;;;;4870562;29;37533;-85
2023/05/18 11:01:00;;;;;;;10.10;2.55;;;14.80;99.90;;;;;;4870371;29;39318;-85
2023/05/18 11:03:27;;;;;;;8.30;2.30;;;15.00;99.90;;;;;;4867871;29;36087;-87
2023/05/18 11:06:09;;;;;;;9.30;2.67;;;15.10;99.90;;;;;;4859341;29;38065;-88
2023/05/18 11:08:49;;;;;;;9.07;2.40;;;15.20;99.90;;;;;;4857592;29;47325;-86
2023/05/18 11:11:16;;;;;;;8.43;2.55;;;15.60;99.90;;;;;;4881571;29;37993;-88
2023/05/18 11:13:46;;;;;;;9.23;2.63;;;16.00;99.90;;;;;;4866430;29;37312;-87
2023/05/18 11:16:14;;;;;;;9.82;2.60;;;15.90;99.90;;;;;;4856851;29;37845;-90
2023/05/18 11:18:46;;;;;;;8.38;2.33;;;16.10;99.90;;;;;;4852001;29;37773;-83
2023/05/18 11:21:40;;;;;;;12.53;2.67;;;16.40;99.90;;;;;;4856735;29;38925;-88
2023/05/18 11:24:31;;;;;;;11.10;2.47;;;15.80;99.90;;;;;;4865741;29;35323;-87
2023/05/18 11:27:02;;;;;;;10.13;2.72;;;15.50;99.90;;;;;;4856797;29;38281;-87
2023/05/18 11:29:38;;;;;;;11.88;2.63;;;15.20;99.90;;;;;;4852421;29;37947;-85
2023/05/18 11:32:27;;;;;;;12.05;2.75;;;15.40;99.90;;;;;;4852773;29;37255;-82
2023/05/18 11:34:53;;;;;;;9.98;2.50;;;15.50;99.90;;;;;;4860524;29;37063;-90
2023/05/18 11:37:38;;;;;;;8.50;2.50;;;15.50;99.90;;;;;;4861162;29;37821;-89
2023/05/18 11:40:09;;;;;;;8.27;2.67;;;16.00;99.90;;;;;;4861533;29;37584;-91
2023/05/18 11:42:35;;;;;;;9.85;2.75;;;16.80;99.90;;;;;;4868979;29;37269;-88
2023/05/18 11:45:09;;;;;;;8.85;2.50;;;16.30;99.90;;;;;;4867651;29;35913;-89
2023/05/18 11:47:39;;;;;;;10.77;2.17;;;16.00;99.90;;;;;;4861711;29;47446;-90
2023/05/18 11:50:07;;;;;;;7.15;2.35;;;16.40;99.90;;;;;;4854871;29;37980;-84
2023/05/18 11:52:48;;;;;;;12.07;3.10;;;16.40;99.90;;;;;;4857720;29;38032;-89
2023/05/18 11:55:15;;;;;;;5.63;1.95;;;16.40;99.90;;;;;;4851033;29;36628;-90
2023/05/18 11:57:44;;;;;;;9.48;2.88;;;17.00;99.90;;;;;;4861349;29;37913;-89
2023/05/18 12:00:11;;;;;;;11.23;2.97;;;17.30;99.90;;;;;;4868803;29;39195;-90
2023/05/18 12:02:37;;;;;;;8.32;2.25;;;17.40;99.90;;;;;;4872220;29;38838;-89
2023/05/18 12:05:08;;;;;;;7.63;2.85;;;17.30;99.90;;;;;;4870684;29;36479;-89
2023/05/18 12:07:35;;;;;;;8.65;2.47;;;16.50;99.90;;;;;;4872748;29;47930;-89
2023/05/18 12:10:08;;;;;;;9.75;2.75;;;16.80;99.90;;;;;;4881009;29;38256;-90
2023/05/18 12:12:34;;;;;;;9.77;2.60;;;17.00;99.90;;;;;;4872099;29;48467;-85
2023/05/18 12:15:02;;;;;;;7.63;2.72;;;17.10;99.90;;;;;;4860172;29;37320;-89
2023/05/18 12:17:50;;;;;;;7.47;2.30;;;17.60;99.90;;;;;;4878654;29;37677;-85
2023/05/18 12:20:19;;;;;;;8.57;2.30;;;17.60;99.90;;;;;;4883700;29;39130;-88
2023/05/18 12:22:51;;;;;;;7.78;2.50;;;17.60;99.90;;;;;;4874820;29;38744;-88
2023/05/18 12:25:26;;;;;;;8.30;2.83;;;17.20;99.90;;;;;;4876369;29;36185;-87
2023/05/18 12:28:03;;;;;;;5.50;2.28;;;17.20;99.90;;;;;;4871578;29;38011;-89
2023/05/18 12:30:33;;;;;;;9.20;2.70;;;17.00;99.90;;;;;;4872220;29;47144;-87
2023/05/18 12:33:03;;;;;;;9.38;2.80;;;17.10;99.90;;;;;;4866041;29;37181;-83
2023/05/18 12:35:34;;;;;;;7.13;2.67;;;16.90;99.90;;;;;;4873692;29;47134;-86
2023/05/18 12:38:01;;;;;;;6.82;2.97;;;16.70;99.90;;;;;;4870780;29;38838;-88
2023/05/18 12:40:46;;;;;;;10.48;2.75;;;16.80;99.90;;;;;;4874227;29;48224;-87
2023/05/18 12:43:33;;;;;;;13.52;2.90;;;16.50;99.90;;;;;;4874726;29;37897;-88
2023/05/18 12:46:04;;;;;;;8.50;3.25;;;16.70;99.90;;;;;;4860251;29;35986;-89
2023/05/18 12:48:48;;;;;;;9.02;2.80;;;16.80;99.90;;;;;;4873299;29;47382;-88
2023/05/18 12:51:18;;;;;;;6.60;2.20;;;17.00;99.90;;;;;;4870766;29;38341;-89
2023/05/18 12:53:52;;;;;;;5.80;2.40;;;17.30;99.90;;;;;;4877885;29;38588;-88
2023/05/18 12:56:26;;;;;;;9.18;2.40;;;17.80;99.90;;;;;;4874596;29;36296;-88
2023/05/18 12:58:57;;;;;;;10.45;2.60;;;17.70;99.90;;;;;;4872758;29;37897;-88
2023/05/18 13:01:24;;;;;;;11.38;2.50;;;17.40;99.90;;;;;;4889262;29;37990;-87
2023/05/18 13:04:00;;;;;;;8.45;3.25;;;17.50;99.90;;;;;;4867168;29;37702;-92
2023/05/18 13:06:26;;;;;;;7.07;2.45;;;17.30;99.90;;;;;;4870280;29;36335;-88
2023/05/18 13:08:54;;;;;;;7.28;2.58;;;17.60;99.90;;;;;;4857381;29;38892;-90
2023/05/18 13:11:27;;;;;;;6.50;2.63;;;18.10;99.90;;;;;;4860045;29;37667;-88
2023/05/18 13:14:03;;;;;;;8.23;2.72;;;18.20;99.90;;;;;;4863315;29;37110;-88
2023/05/18 13:16:31;;;;;;;7.43;2.83;;;18.30;99.90;;;;;;4868480;29;47493;-87
2023/05/18 13:19:00;;;;;;;7.45;2.85;;;18.00;99.90;;;;;;4870855;29;38087;-87
2023/05/18 13:21:27;;;;;;;7.22;2.67;;;17.90;99.90;;;;;;4862548;29;38597;-87
2023/05/18 13:23:56;;;;;;;7.50;2.47;;;18.10;99.90;;;;;;4871677;29;37353;-89
2023/05/18 13:26:24;;;;;;;10.70;3.42;;;18.10;99.90;;;;;;4884094;29;39010;-89
2023/05/18 13:28:54;;;;;;;7.50;2.80;;;17.60;99.90;;;;;;4874787;29;39166;-88
2023/05/18 13:31:21;;;;;;;5.32;2.05;;;17.40;99.90;;;;;;4872269;29;38650;-88
2023/05/18 13:33:48;;;;;;;9.00;3.10;;;17.90;99.90;;;;;;4870774;29;38232;-86
2023/05/18 13:36:17;;;;;;;9.57;2.72;;;17.80;99.90;;;;;;4869946;29;35832;-86
2023/05/18 13:38:44;;;;;;;9.93;3.10;;;18.00;99.90;;;;;;4873689;29;38046;-85
2023/05/18 13:41:17;;;;;;;10.80;2.83;;;18.00;99.90;;;;;;4870594;29;37991;-84
2023/05/18 13:43:43;;;;;;;10.82;2.72;;;18.60;99.90;;;;;;4872853;29;39212;-87
2023/05/18 13:46:10;;;;;;;9.57;3.30;;;18.80;99.90;;;;;;4867220;29;35948;-88
2023/05/18 13:48:40;;;;;;;8.52;2.83;;;18.60;99.90;;;;;;4869788;29;39257;-87
2023/05/18 13:51:06;;;;;;;21.80;4.63;;;18.20;99.90;;;;;;4866889;29;37864;-90
2023/05/18 13:53:32;;;;;;;9.73;3.00;;;18.30;99.90;;;;;;4864347;29;38894;-92
2023/05/18 13:55:59;;;;;;;6.80;3.03;;;18.30;99.90;;;;;;4872471;29;38745;-88
2023/05/18 13:58:25;;;;;;;9.52;3.28;;;18.30;99.90;;;;;;4866994;29;40157;-88
2023/05/18 14:00:53;;;;;;;10.93;2.63;;;18.10;99.90;;;;;;4869078;29;37751;-87
2023/05/18 14:03:19;;;;;;;9.88;2.90;;;18.30;99.90;;;;;;4859088;29;37992;-87
2023/05/18 14:05:45;;;;;;;11.40;2.95;;;18.70;99.90;;;;;;4866210;29;39369;-87
2023/05/18 14:08:11;;;;;;;9.15;2.97;;;18.70;99.90;;;;;;4867571;29;37955;-87
2023/05/18 14:10:37;;;;;;;5.40;2.40;;;18.50;99.90;;;;;;4864195;29;38573;-87
2023/05/18 14:13:04;;;;;;;22.80;3.30;;;18.90;99.90;;;;;;4865807;29;37453;-86
2023/05/18 14:15:30;;;;;;;13.15;2.70;;;19.20;99.90;;;;;;4865952;29;37832;-86
2023/05/18 14:17:59;;;;;;;8.40;2.83;;;19.10;99.90;;;;;;4868797;29;37788;-88
2023/05/18 14:20:26;;;;;;;9.02;2.58;;;18.90;99.90;;;;;;4866067;29;38217;-90
2023/05/18 14:22:52;;;;;;;9.32;3.25;;;18.50;99.90;;;;;;4866737;29;37549;-88
2023/05/18 14:25:19;;;;;;;10.55;3.25;;;18.10;99.90;;;;;;4882362;29;36253;-91
2023/05/18 14:27:45;;;;;;;8.75;2.50;;;18.10;99.90;;;;;;4864833;29;37793;-92
2023/05/18 14:30:11;;;;;;;9.65;2.30;;;18.10;99.90;;;;;;4865318;29;37623;-91
2023/05/18 14:32:38;;;;;;;8.25;2.65;;;18.40;99.90;;;;;;4861876;29;39482;-89
2023/05/18 14:35:04;;;;;;;9.38;3.17;;;18.70;99.90;;;;;;4868429;29;38394;-90
2023/05/18 14:37:31;;;;;;;7.30;2.33;;;18.00;99.90;;;;;;4868006;29;49004;-90
2023/05/18 14:39:57;;;;;;;8.48;2.50;;;17.70;99.90;;;;;;4849884;29;37564;-91
2023/05/18 14:42:24;;;;;;;7.25;2.60;;;17.60;99.90;;;;;;4866180;29;37102;-90
2023/05/18 14:44:50;;;;;;;11.30;2.60;;;17.90;99.90;;;;;;4864387;29;36318;-91
2023/05/18 14:47:16;;;;;;;6.53;2.78;;;18.00;99.90;;;;;;4857772;29;37810;-89
2023/05/18 14:49:42;;;;;;;8.60;2.60;;;18.20;99.90;;;;;;4858738;29;37887;-91
2023/05/18 14:52:09;;;;;;;12.50;2.85;;;18.00;99.90;;;;;;4855968;29;38779;-91
2023/05/18 14:54:35;;;;;;;7.22;2.30;;;17.60;99.90;;;;;;4854768;29;36759;-93
2023/05/18 14:57:01;;;;;;;7.40;2.70;;;17.70;99.90;;;;;;4852408;29;37907;-87
2023/05/18 14:59:27;;;;;;;9.85;2.88;;;17.80;99.90;;;;;;4864830;29;37178;-85
2023/05/18 15:01:54;;;;;;;7.53;3.00;;;17.50;99.90;;;;;;4863585;29;37557;-85
2023/05/18 15:04:20;;;;;;;6.45;3.72;;;17.80;99.90;;;;;;4853041;29;36200;-84
2023/05/18 15:06:48;;;;;;;8.18;3.67;;;18.10;99.90;;;;;;4854502;29;37946;-87
2023/05/18 15:09:14;;;;;;;8.40;3.13;;;17.70;99.90;;;;;;4856578;29;38103;-90
2023/05/18 15:11:40;;;;;;;38.13;21.70;;;17.40;99.90;;;;;;4859564;29;37874;-87
2023/05/18 15:14:06;;;;;;;27.33;17.77;;;17.20;99.90;;;;;;4856242;29;35992;-90
2023/05/18 15:16:32;;;;;;;28.73;21.88;;;17.40;99.90;;;;;;4859825;29;37694;-86
2023/05/18 15:18:59;;;;;;;9.45;4.18;;;17.40;99.90;;;;;;4863336;29;38749;-89
2023/05/18 15:21:25;;;;;;;8.20;2.88;;;17.40;99.90;;;;;;4857569;29;37646;-85
2023/05/18 15:23:53;;;;;;;10.13;2.85;;;17.50;99.90;;;;;;4861881;29;36463;-88
2023/05/18 15:26:20;;;;;;;6.10;2.53;;;17.70;99.90;;;;;;4855673;29;38056;-86
2023/05/18 15:28:46;;;;;;;6.15;2.22;;;17.60;99.90;;;;;;4853563;29;37560;-88
2023/05/18 15:31:12;;;;;;;7.07;2.80;;;17.80;99.90;;;;;;4859269;29;37349;-89
2023/05/18 15:33:41;;;;;;;11.43;3.70;;;17.90;99.90;;;;;;4858091;29;36133;-91
2023/05/18 15:36:08;;;;;;;11.15;4.28;;;17.70;99.90;;;;;;4860591;29;37912;-88
2023/05/18 15:38:34;;;;;;;13.43;4.15;;;17.60;99.90;;;;;;4857717;29;37977;-89
2023/05/18 15:41:00;;;;;;;8.23;2.92;;;17.90;99.90;;;;;;4859058;29;36363;-90
2023/05/18 15:43:28;;;;;;;9.32;3.05;;;18.00;99.90;;;;;;4860907;29;36474;-89
2023/05/18 15:45:54;;;;;;;8.73;2.65;;;18.20;99.90;;;;;;4861181;29;38694;-86
2023/05/18 15:48:22;;;;;;;8.98;3.33;;;18.10;99.90;;;;;;4854907;29;38545;-90
2023/05/18 15:50:50;;;;;;;8.15;3.10;;;17.70;99.90;;;;;;4856826;29;38146;-89
2023/05/18 15:53:16;;;;;;;12.65;7.05;;;18.10;99.90;;;;;;4850315;29;35932;-91
2023/05/18 15:55:42;;;;;;;7.47;2.95;;;18.10;99.90;;;;;;4844513;29;37553;-87
2023/05/18 15:58:08;;;;;;;9.18;3.33;;;17.80;99.90;;;;;;4853369;29;37894;-84
2023/05/18 16:00:37;;;;;;;10.25;3.47;;;17.80;99.90;;;;;;4851000;29;37470;-87
2023/05/18 16:03:06;;;;;;;8.82;2.95;;;17.60;99.90;;;;;;4843071;29;36065;-85
2023/05/18 16:05:32;;;;;;;11.15;2.70;;;17.80;99.90;;;;;;4856547;29;38774;-88
2023/05/18 16:07:58;;;;;;;6.63;2.25;;;18.00;99.90;;;;;;4870026;29;36402;-88
2023/05/18 16:10:24;;;;;;;10.93;2.65;;;18.00;99.90;;;;;;4857575;29;39059;-88
2023/05/18 16:12:51;;;;;;;9.27;2.95;;;18.00;99.90;;;;;;4854214;29;36229;-86
2023/05/18 16:15:18;;;;;;;12.60;3.45;;;17.90;99.90;;;;;;4853551;29;40327;-85
2023/05/18 16:17:45;;;;;;;8.18;3.10;;;18.10;99.90;;;;;;4856385;29;39283;-88
2023/05/18 16:20:12;;;;;;;6.13;2.92;;;18.00;99.90;;;;;;4852660;29;36908;-86
2023/05/18 16:22:45;;;;;;;5.70;2.40;;;17.80;99.90;;;;;;4865171;29;36202;-86
2023/05/18 16:25:12;;;;;;;7.38;3.35;;;17.60;99.90;;;;;;4850764;29;37420;-87
2023/05/18 16:27:39;;;;;;;8.30;2.92;;;17.80;99.90;;;;;;4859787;29;39098;-88
2023/05/18 16:30:05;;;;;;;7.03;2.78;;;17.90;99.90;;;;;;4851079;29;37299;-89
2023/05/18 16:32:32;;;;;;;8.60;3.20;;;18.00;99.90;;;;;;4853024;29;36531;-88
2023/05/18 16:34:58;;;;;;;10.25;3.30;;;17.70;99.90;;;;;;4847924;29;40963;-87
2023/05/18 16:37:24;;;;;;;8.95;3.05;;;17.90;99.90;;;;;;4866124;29;37883;-84
2023/05/18 16:39:50;;;;;;;5.88;2.33;;;17.90;99.90;;;;;;4851546;29;39211;-84
2023/05/18 16:42:18;;;;;;;7.75;3.13;;;17.80;99.90;;;;;;4856863;29;36471;-83
2023/05/18 16:44:44;;;;;;;6.13;2.50;;;17.80;99.90;;;;;;4867277;29;37448;-85
2023/05/18 16:47:10;;;;;;;8.23;2.58;;;17.80;99.90;;;;;;4852245;29;38713;-84
2023/05/18 16:49:36;;;;;;;7.65;2.72;;;17.90;99.90;;;;;;4863472;29;38666;-85
2023/05/18 16:52:03;;;;;;;8.40;2.78;;;17.80;99.90;;;;;;4861471;29;37650;-86
2023/05/18 16:54:30;;;;;;;7.10;2.90;;;17.70;99.90;;;;;;4855071;29;39054;-86
2023/05/18 16:56:56;;;;;;;8.00;2.70;;;17.60;99.90;;;;;;4861432;29;38734;-86
2023/05/18 16:59:23;;;;;;;11.60;3.28;;;17.40;99.90;;;;;;4862025;29;38209;-85
2023/05/18 17:01:49;;;;;;;7.38;2.70;;;17.30;99.90;;;;;;4880396;29;37416;-86
2023/05/18 17:04:15;;;;;;;6.95;3.10;;;17.30;99.90;;;;;;4864142;29;39441;-86
2023/05/18 17:06:41;;;;;;;12.88;6.82;;;17.40;99.90;;;;;;4864261;29;38596;-85
2023/05/18 17:09:07;;;;;;;7.13;2.85;;;17.30;99.90;;;;;;4847308;29;37712;-87
2023/05/18 17:11:33;;;;;;;7.50;3.42;;;17.20;99.90;;;;;;4862165;29;36703;-88
2023/05/18 17:14:00;;;;;;;9.40;2.70;;;17.00;99.90;;;;;;4857967;29;39007;-87
2023/05/18 17:16:27;;;;;;;13.23;2.90;;;17.10;99.90;;;;;;4852705;29;37746;-86
2023/05/18 17:18:53;;;;;;;7.28;2.97;;;17.00;99.90;;;;;;4863420;29;37336;-85
2023/05/18 17:21:20;;;;;;;8.60;2.95;;;16.90;99.90;;;;;;4850542;29;37989;-82
2023/05/18 17:23:46;;;;;;;6.88;3.22;;;16.80;99.90;;;;;;4854655;29;36634;-84
2023/05/18 17:26:12;;;;;;;12.68;3.50;;;16.70;99.90;;;;;;4852245;29;37479;-83
2023/05/18 17:28:38;;;;;;;7.93;3.13;;;16.50;99.90;;;;;;4856833;29;38696;-83
2023/05/18 17:31:05;;;;;;;8.80;3.05;;;16.40;99.90;;;;;;4857423;29;37410;-85
2023/05/18 17:33:31;;;;;;;8.48;2.80;;;16.50;99.90;;;;;;4857971;29;38559;-84
2023/05/18 17:35:57;;;;;;;7.45;2.65;;;16.40;99.90;;;;;;4859121;29;37668;-83
2023/05/18 17:38:23;;;;;;;9.77;2.92;;;16.10;99.90;;;;;;4863960;29;38434;-82
2023/05/18 17:40:50;;;;;;;8.55;2.88;;;15.90;99.90;;;;;;4861143;29;36184;-84
2023/05/18 17:43:16;;;;;;;5.68;3.30;;;15.80;99.90;;;;;;4863921;29;38251;-83
2023/05/18 17:45:42;;;;;;;9.07;3.08;;;15.90;99.90;;;;;;4859798;29;39214;-85
2023/05/18 17:48:08;;;;;;;6.50;3.03;;;15.90;99.90;;;;;;4862092;29;39067;-85
2023/05/18 17:50:36;;;;;;;11.65;3.28;;;15.70;99.90;;;;;;4855210;29;38704;-83
2023/05/18 17:53:03;;;;;;;11.02;3.53;;;15.70;99.90;;;;;;4864490;29;39415;-82
2023/05/18 17:55:29;;;;;;;11.63;3.45;;;15.50;99.90;;;;;;4852408;29;38981;-85
2023/05/18 17:58:01;;;;;;;6.80;2.88;;;15.40;99.90;;;;;;4860080;29;36503;-83
2023/05/18 18:00:30;;;;;;;11.57;3.25;;;15.30;99.90;;;;;;4853937;29;49207;-82
2023/05/18 18:02:57;;;;;;;7.05;3.10;;;15.40;99.90;;;;;;4859705;29;37810;-86
2023/05/18 18:05:26;;;;;;;11.82;3.03;;;15.40;99.90;;;;;;4854012;29;38203;-82
2023/05/18 18:07:52;;;;;;;9.50;2.92;;;15.30;99.90;;;;;;4852614;29;37516;-83
2023/05/18 18:10:19;;;;;;;9.23;2.90;;;15.30;99.90;;;;;;4844980;29;37375;-83
2023/05/18 18:12:45;;;;;;;10.27;3.13;;;15.30;99.90;;;;;;4849985;29;37422;-85
2023/05/18 18:15:12;;;;;;;8.80;2.50;;;15.20;99.90;;;;;;4855537;29;38674;-84
2023/05/18 18:17:38;;;;;;;8.73;2.70;;;15.10;99.90;;;;;;4860096;29;37063;-82
2023/05/18 18:20:05;;;;;;;10.25;3.22;;;15.10;99.90;;;;;;4866022;29;38664;-82
2023/05/18 18:22:32;;;;;;;9.10;3.58;;;15.00;99.90;;;;;;4867469;29;40345;-82
2023/05/18 18:25:00;;;;;;;8.18;3.42;;;15.00;99.90;;;;;;4854782;29;39126;-82
2023/05/18 18:27:26;;;;;;;7.63;2.47;;;15.00;99.90;;;;;;4875323;29;40328;-82
2023/05/18 18:29:56;;;;;;;6.88;3.50;;;15.00;99.90;;;;;;4881088;29;37123;-82
2023/05/18 18:32:22;;;;;;;7.88;2.65;;;15.10;99.90;;;;;;4861108;29;38313;-80
2023/05/18 18:34:48;;;;;;;6.95;2.80;;;15.00;99.90;;;;;;4878147;29;39604;-82
2023/05/18 18:37:17;;;;;;;9.63;2.85;;;14.80;99.90;;;;;;4875394;29;39222;-81
2023/05/18 18:39:43;;;;;;;11.32;2.95;;;14.60;99.90;;;;;;4897801;29;37335;-81
2023/05/18 18:42:09;;;;;;;8.63;2.95;;;14.60;99.90;;;;;;4874344;29;39396;-84
2023/05/18 18:44:51;;;;;;;7.43;2.85;;;14.50;99.90;;;;;;4874573;29;40809;-82
2023/05/18 18:47:31;;;;;;;9.27;3.15;;;14.40;99.90;;;;;;4872233;29;39596;-81
2023/05/18 18:50:16;;;;;;;7.50;2.75;;;14.30;99.90;;;;;;4879786;29;38595;-82
2023/05/18 18:52:45;;;;;;;10.45;3.60;;;14.30;99.90;;;;;;4863909;29;48711;-82
2023/05/18 18:55:24;;;;;;;6.50;2.92;;;14.20;99.90;;;;;;4862280;29;38759;-82
2023/05/18 18:58:00;;;;;;;7.22;2.78;;;14.20;99.90;;;;;;4863171;29;38593;-82
2023/05/18 19:00:26;;;;;;;11.30;3.13;;;14.20;99.90;;;;;;4856401;29;38623;-82
2023/05/18 19:03:08;;;;;;;13.13;3.20;;;14.10;99.90;;;;;;4879469;29;40210;-84
2023/05/18 19:05:40;;;;;;;5.50;2.93;;;14.10;99.90;;;;;;4864512;29;50215;-83
2023/05/18 19:08:08;;;;;;;7.10;3.00;;;14.10;99.90;;;;;;4877865;29;38923;-84
2023/05/18 19:10:57;;;;;;;7.55;2.60;;;14.10;99.90;;;;;;4862270;29;37156;-82
2023/05/18 19:13:27;;;;;;;7.80;2.40;;;14.00;99.90;;;;;;4865883;29;38368;-80
2023/05/18 19:15:57;;;;;;;11.27;2.80;;;14.00;99.90;;;;;;4865130;29;38561;-82
2023/05/18 19:18:24;;;;;;;9.45;2.50;;;13.90;99.90;;;;;;4879401;29;38156;-82
2023/05/18 19:20:53;;;;;;;5.85;2.35;;;13.90;99.90;;;;;;4875099;29;37534;-82
2023/05/18 19:23:21;;;;;;;8.75;2.70;;;13.80;99.90;;;;;;4856997;29;38744;-82
2023/05/18 19:25:59;;;;;;;14.73;3.13;;;13.70;99.90;;;;;;4882321;29;39278;-81
2023/05/18 19:28:29;;;;;;;8.25;3.03;;;13.70;99.90;;;;;;4849806;29;38088;-83
2023/05/18 19:30:55;;;;;;;6.05;2.55;;;13.70;99.90;;;;;;4867234;29;36204;-84
2023/05/18 19:33:22;;;;;;;8.13;2.83;;;13.60;99.90;;;;;;4864406;29;38041;-84
2023/05/18 19:35:51;;;;;;;12.15;2.70;;;13.60;99.90;;;;;;4862204;29;39016;-84
2023/05/18 19:38:20;;;;;;;8.80;2.70;;;13.60;99.90;;;;;;4883075;29;39800;-84
2023/05/18 19:40:46;;;;;;;7.00;2.63;;;13.60;99.90;;;;;;4888250;29;37179;-83
2023/05/18 19:43:17;;;;;;;8.48;3.22;;;13.50;99.90;;;;;;4909559;29;39204;-83
2023/05/18 19:45:48;;;;;;;10.88;3.38;;;13.60;99.90;;;;;;4897373;29;40198;-83
2023/05/18 19:48:22;;;;;;;9.23;3.40;;;13.50;99.90;;;;;;4882343;29;39835;-83
2023/05/18 19:50:51;;;;;;;8.98;3.15;;;13.50;99.90;;;;;;4880752;29;37057;-83
2023/05/18 19:53:29;;;;;;;7.05;3.22;;;13.50;99.90;;;;;;4873273;29;40251;-82
2023/05/18 19:55:59;;;;;;;9.18;3.05;;;13.50;99.90;;;;;;4952152;23;39405;-83
2023/05/18 19:59:03;;;;;;;9.55;3.13;;;13.50;99.90;;;;;;4844862;29;38685;-82
2023/05/18 20:04:10;;;;;;;8.85;3.38;;;13.30;99.90;;;;;;5101866;23;20030;-83
2023/05/18 20:06:48;;;;;;;7.78;3.58;;;13.30;99.90;;;;;;4887854;29;39426;-82
2023/05/18 20:09:30;;;;;;;9.35;3.85;;;13.30;99.90;;;;;;4872124;29;37490;-83
2023/05/18 20:11:57;;;;;;;8.15;3.67;;;13.30;99.90;;;;;;4876096;29;37402;-83
2023/05/18 20:14:41;;;;;;;8.20;3.50;;;13.30;99.90;;;;;;4858657;29;38685;-82
2023/05/18 20:17:08;;;;;;;9.18;3.78;;;13.20;99.90;;;;;;4888163;29;39278;-83
2023/05/18 20:19:36;;;;;;;7.30;3.67;;;13.10;99.90;;;;;;4875511;29;39029;-83
2023/05/18 20:22:07;;;;;;;8.48;3.33;;;13.10;99.90;;;;;;4882135;29;38016;-83
2023/05/18 20:24:36;;;;;;;10.10;3.75;;;13.00;99.90;;;;;;4876098;29;48828;-83
2023/05/18 20:27:02;;;;;;;8.40;4.10;;;13.00;99.90;;;;;;4858632;29;39336;-83
2023/05/18 20:29:29;;;;;;;10.90;3.60;;;13.00;99.90;;;;;;4864940;29;47572;-83
2023/05/18 20:31:59;;;;;;;12.55;3.58;;;13.00;99.90;;;;;;4877166;29;37413;-83
2023/05/18 20:34:25;;;;;;;7.90;3.10;;;13.00;99.90;;;;;;4878498;29;39884;-83
2023/05/18 20:36:54;;;;;;;12.35;3.38;;;12.90;99.90;;;;;;4873618;29;40225;-82
2023/05/18 20:39:27;;;;;;;8.65;3.80;;;12.90;99.90;;;;;;4877526;29;38882;-83
2023/05/18 20:42:03;;;;;;;12.82;3.95;;;12.90;99.90;;;;;;4857883;29;37567;-83
2023/05/18 20:44:36;;;;;;;10.27;3.88;;;12.90;99.90;;;;;;4855604;29;47591;-83
2023/05/18 20:47:10;;;;;;;9.45;3.88;;;12.90;99.90;;;;;;4861106;29;39514;-83
2023/05/18 20:49:40;;;;;;;12.18;3.33;;;12.80;99.90;;;;;;4872248;29;38841;-84
2023/05/18 20:52:09;;;;;;;7.78;3.78;;;12.80;99.90;;;;;;4866285;29;37645;-81
2023/05/18 20:54:40;;;;;;;10.88;4.18;;;12.80;99.90;;;;;;4859071;29;37354;-82
2023/05/18 20:57:27;;;;;;;9.65;3.60;;;12.80;99.90;;;;;;4857250;29;41226;-83
2023/05/18 20:59:54;;;;;;;10.38;3.53;;;12.70;99.90;;;;;;4891367;29;39836;-82
2023/05/18 21:02:28;;;;;;;9.15;3.40;;;12.70;99.90;;;;;;4878321;29;37946;-83
2023/05/18 21:04:56;;;;;;;10.75;3.85;;;12.60;99.90;;;;;;4874314;29;39286;-82
2023/05/18 21:07:26;;;;;;;10.15;3.78;;;12.60;99.90;;;;;;4977639;23;39149;-85
2023/05/18 21:09:56;;;;;;;12.48;4.07;;;12.60;99.90;;;;;;4874226;29;39347;-81
2023/05/18 21:12:36;;;;;;;10.40;3.95;;;12.60;99.90;;;;;;4863611;29;37641;-82
2023/05/18 21:15:12;;;;;;;14.40;4.50;;;12.50;99.90;;;;;;4880103;29;37857;-82
2023/05/18 21:17:48;;;;;;;13.60;4.22;;;12.40;99.90;;;;;;4864212;29;48310;-82